Time;durP1;ratioP1;P1;durP2;ratioP2;P2;SDS_P1;SDS_P2;PMS_P1;PMS_P2;Temp;Humidity;BMP_temperature;BMP_pressure;BME280_temperature;BME280_humidity;BME280_pressure;Samples;Min_cycle;Max_cycle;Signal;HPM_P1;HPM_P2
2023/11/22 00:00:39;;;;;;;11.13;6.50;;;;;;;8.65;67.11;97716.25;4947139;28;20206;-82
2023/11/22 00:03:05;;;;;;;10.20;6.35;;;;;;;8.42;67.17;97713.31;4957244;28;20248;-80
2023/11/22 00:05:30;;;;;;;10.43;6.63;;;;;;;8.32;66.97;97715.59;4945411;28;20278;-81
2023/11/22 00:07:56;;;;;;;9.43;5.50;;;;;;;8.38;66.16;97704.34;4931447;28;20143;-79
2023/11/22 00:10:23;;;;;;;13.43;6.00;;;;;;;8.00;67.36;97709.72;4947597;28;20215;-80
2023/11/22 00:12:48;;;;;;;8.73;5.32;;;;;;;8.28;66.97;97719.63;4955234;28;20191;-81
2023/11/22 00:15:17;;;;;;;9.00;5.57;;;;;;;7.68;67.89;97717.59;4938686;28;20230;-79
2023/11/22 00:17:46;;;;;;;9.50;4.90;;;;;;;7.79;67.70;97716.88;4935226;28;20627;-80
2023/11/22 00:20:11;;;;;;;6.63;4.20;;;;;;;7.69;68.28;97711.38;4941056;28;20259;-81
2023/11/22 00:22:37;;;;;;;9.90;5.15;;;;;;;7.57;68.62;97698.31;4930579;28;20297;-80
2023/11/22 00:25:03;;;;;;;11.15;5.55;;;;;;;7.98;68.56;97703.97;4934447;28;20587;-82
2023/11/22 00:27:32;;;;;;;10.15;6.28;;;;;;;8.07;67.82;97713.84;4945504;28;20270;-80
2023/11/22 00:29:58;;;;;;;10.13;6.05;;;;;;;7.99;68.10;97711.53;4955436;28;20187;-83
2023/11/22 00:32:23;;;;;;;9.75;5.57;;;;;;;7.90;68.40;97717.19;4937046;28;20282;-81
2023/11/22 00:34:49;;;;;;;9.60;5.40;;;;;;;7.83;67.95;97722.44;4944379;28;20706;-83
2023/11/22 00:37:15;;;;;;;8.55;4.82;;;;;;;7.28;68.86;97712.69;4946023;28;20228;-81
2023/11/22 00:39:41;;;;;;;8.82;5.32;;;;;;;7.30;68.87;97714.06;4958265;28;20290;-81
2023/11/22 00:42:07;;;;;;;9.38;4.90;;;;;;;7.43;67.78;97733.91;4936609;28;20651;-82
2023/11/22 00:44:32;;;;;;;9.25;4.88;;;;;;;7.25;68.01;97737.22;4964589;28;20299;-82
2023/11/22 00:46:58;;;;;;;7.45;4.80;;;;;;;7.07;68.25;97735.31;4967930;28;20772;-81
2023/11/22 00:49:24;;;;;;;8.25;4.60;;;;;;;7.53;67.99;97738.63;4933942;28;20624;-81
2023/11/22 00:51:50;;;;;;;7.45;4.32;;;;;;;7.46;66.95;97733.50;4959084;28;20250;-82
2023/11/22 00:54:16;;;;;;;8.13;4.20;;;;;;;7.40;66.77;97738.72;4942250;28;20215;-82
2023/11/22 00:56:41;;;;;;;6.95;4.38;;;;;;;7.37;66.86;97744.31;4958368;28;20185;-83
2023/11/22 00:59:07;;;;;;;6.88;3.83;;;;;;;7.45;66.52;97747.47;4964115;28;20207;-81
2023/11/22 01:01:32;;;;;;;6.72;4.35;;;;;;;7.32;66.47;97745.75;4948979;28;20279;-82
2023/11/22 01:03:58;;;;;;;6.43;4.00;;;;;;;7.09;67.29;97753.22;4966949;28;20204;-81
2023/11/22 01:06:24;;;;;;;6.10;3.70;;;;;;;7.37;66.59;97746.91;4944472;28;20203;-83
2023/11/22 01:08:49;;;;;;;7.50;4.63;;;;;;;7.34;66.07;97765.47;4952323;28;20568;-83
2023/11/22 01:11:15;;;;;;;8.27;4.60;;;;;;;7.39;66.03;97760.47;4966548;28;20207;-83
2023/11/22 01:13:42;;;;;;;6.95;4.05;;;;;;;7.38;66.28;97754.47;4968590;28;20612;-82
2023/11/22 01:16:08;;;;;;;6.88;4.20;;;;;;;7.38;65.33;97751.88;4931081;28;20928;-83
2023/11/22 01:18:33;;;;;;;5.85;4.00;;;;;;;7.29;66.00;97755.72;4969502;28;20314;-83
2023/11/22 01:20:59;;;;;;;6.35;3.95;;;;;;;7.25;65.87;97760.53;4945886;28;20223;-83
2023/11/22 01:23:24;;;;;;;6.22;3.67;;;;;;;7.34;66.15;97762.88;4956993;28;20083;-81
2023/11/22 01:25:50;;;;;;;6.63;4.65;;;;;;;6.94;65.87;97745.75;4943878;28;20196;-81
2023/11/22 01:28:17;;;;;;;7.55;4.22;;;;;;;6.97;66.50;97755.69;4950780;28;20274;-81
2023/11/22 01:30:45;;;;;;;7.10;3.65;;;;;;;7.07;66.54;97756.03;4951093;28;20219;-81
2023/11/22 01:33:11;;;;;;;6.93;3.95;;;;;;;7.21;65.45;97764.53;4974368;28;20349;-81
2023/11/22 01:35:36;;;;;;;6.63;3.55;;;;;;;7.20;65.25;97759.56;4959475;28;20164;-80
2023/11/22 01:38:04;;;;;;;8.73;4.28;;;;;;;7.45;64.25;97754.41;4941395;28;20423;-82
2023/11/22 01:40:32;;;;;;;5.90;3.55;;;;;;;7.49;64.26;97765.97;4964179;28;20187;-83
2023/11/22 01:42:58;;;;;;;7.45;4.07;;;;;;;7.27;64.84;97766.28;4945250;28;20325;-82
2023/11/22 01:45:23;;;;;;;5.50;3.85;;;;;;;7.45;64.43;97762.19;4944854;28;20284;-83
2023/11/22 01:47:50;;;;;;;6.93;3.90;;;;;;;7.56;64.27;97776.28;4935470;28;20631;-83
2023/11/22 01:50:16;;;;;;;5.97;3.58;;;;;;;7.53;63.68;97774.91;4948582;28;20677;-83
2023/11/22 01:52:42;;;;;;;7.43;3.75;;;;;;;7.26;64.36;97785.41;4953937;28;20160;-82
2023/11/22 01:55:11;;;;;;;5.65;3.60;;;;;;;7.34;64.02;97781.00;4935767;28;20195;-83
2023/11/22 01:57:37;;;;;;;9.70;3.70;;;;;;;6.93;64.76;97791.53;4944825;28;20625;-81
2023/11/22 02:00:04;;;;;;;6.47;4.03;;;;;;;7.17;64.74;97799.63;4948978;28;20173;-82
2023/11/22 02:02:33;;;;;;;6.65;4.00;;;;;;;7.30;63.87;97804.72;4940140;28;20261;-83
2023/11/22 02:04:59;;;;;;;7.50;3.72;;;;;;;7.13;64.16;97803.63;4945908;28;20239;-81
2023/11/22 02:07:27;;;;;;;7.40;3.88;;;;;;;7.12;63.75;97807.22;4952739;28;20598;-81
2023/11/22 02:09:52;;;;;;;6.60;4.07;;;;;;;7.16;63.87;97807.59;4948502;28;20674;-82
2023/11/22 02:12:19;;;;;;;5.72;3.30;;;;;;;6.99;63.76;97791.72;4970253;28;20236;-83
2023/11/22 02:14:45;;;;;;;6.53;3.78;;;;;;;7.06;63.91;97813.19;4951948;28;20293;-83
2023/11/22 02:17:11;;;;;;;7.60;3.78;;;;;;;7.07;63.84;97801.84;4941928;28;20235;-81
2023/11/22 02:19:36;;;;;;;6.75;3.45;;;;;;;7.10;63.47;97811.81;4929923;28;20211;-83
2023/11/22 02:22:02;;;;;;;5.18;3.50;;;;;;;6.91;63.50;97809.06;4935081;28;20206;-82
2023/11/22 02:24:27;;;;;;;6.03;3.33;;;;;;;7.04;63.18;97808.25;4951911;28;20191;-82
2023/11/22 02:26:53;;;;;;;5.30;2.90;;;;;;;7.02;62.87;97815.41;4930466;28;20153;-82
2023/11/22 02:29:18;;;;;;;5.55;2.60;;;;;;;6.59;63.75;97812.56;4953074;28;20302;-82
2023/11/22 02:31:44;;;;;;;4.25;2.72;;;;;;;6.56;63.15;97826.69;4948416;28;20284;-81
2023/11/22 02:34:09;;;;;;;4.45;2.70;;;;;;;6.49;63.86;97828.50;4948029;28;20790;-80
2023/11/22 02:36:35;;;;;;;5.15;2.45;;;;;;;6.17;64.78;97834.28;4969600;28;20164;-80
2023/11/22 02:39:00;;;;;;;4.85;3.28;;;;;;;6.41;64.02;97839.84;4974050;28;20209;-81
2023/11/22 02:41:32;;;;;;;6.53;2.95;;;;;;;6.27;64.34;97833.09;4946600;28;20212;-81
2023/11/22 02:43:57;;;;;;;5.45;2.70;;;;;;;6.39;64.91;97847.00;4930715;28;20691;-81
2023/11/22 02:46:23;;;;;;;4.55;2.80;;;;;;;6.69;63.10;97844.00;4950832;28;20192;-79
2023/11/22 02:48:49;;;;;;;4.72;2.80;;;;;;;6.45;64.15;97848.78;4945463;28;20211;-80
2023/11/22 02:51:15;;;;;;;4.70;2.85;;;;;;;6.31;64.02;97850.59;4949882;28;20282;-81
2023/11/22 02:53:43;;;;;;;4.20;2.53;;;;;;;6.38;64.44;97843.63;4961434;28;20211;-81
2023/11/22 02:56:09;;;;;;;4.43;3.15;;;;;;;6.66;63.20;97846.97;4950376;28;20338;-80
2023/11/22 02:58:34;;;;;;;5.43;2.90;;;;;;;6.62;62.90;97840.63;4931805;28;20282;-79
2023/11/22 03:01:00;;;;;;;6.65;3.15;;;;;;;6.68;62.69;97845.78;4967275;28;20270;-80
2023/11/22 03:03:27;;;;;;;3.47;2.47;;;;;;;6.67;63.54;97848.56;4945579;28;20203;-80
2023/11/22 03:05:52;;;;;;;4.80;2.63;;;;;;;6.73;63.28;97851.16;4957346;28;20356;-81
2023/11/22 03:08:18;;;;;;;5.53;3.13;;;;;;;6.72;62.74;97841.00;4945597;28;20185;-81
2023/11/22 03:10:46;;;;;;;6.13;3.17;;;;;;;6.62;62.94;97838.03;4943637;28;20459;-81
2023/11/22 03:13:12;;;;;;;5.63;3.08;;;;;;;6.73;62.48;97853.75;4942552;28;20272;-80
2023/11/22 03:15:38;;;;;;;6.82;3.03;;;;;;;6.65;63.45;97841.00;4964700;28;20609;-81
2023/11/22 03:18:06;;;;;;;3.72;3.08;;;;;;;6.56;63.29;97847.38;4965622;28;20231;-82
2023/11/22 03:20:32;;;;;;;4.85;2.80;;;;;;;6.71;62.80;97862.69;4923750;28;20681;-80
2023/11/22 03:22:58;;;;;;;5.43;3.08;;;;;;;6.62;62.94;97866.50;4932487;28;20199;-80
2023/11/22 03:25:23;;;;;;;3.80;2.25;;;;;;;6.54;63.34;97859.72;4946162;28;20173;-81
2023/11/22 03:27:49;;;;;;;5.38;2.83;;;;;;;6.50;62.82;97877.44;4946320;28;20212;-81
2023/11/22 03:30:15;;;;;;;4.97;2.60;;;;;;;6.29;63.14;97875.88;4969538;28;20356;-81
2023/11/22 03:32:43;;;;;;;4.85;3.17;;;;;;;6.46;62.44;97886.63;4949270;28;20187;-80
2023/11/22 03:35:09;;;;;;;6.07;2.60;;;;;;;6.44;63.14;97877.44;4946787;28;20282;-81
2023/11/22 03:37:35;;;;;;;3.90;2.90;;;;;;;6.46;63.04;97884.03;4933062;28;20640;-81
2023/11/22 03:40:01;;;;;;;4.75;2.80;;;;;;;6.57;62.88;97893.75;4969517;28;20248;-80
2023/11/22 03:42:27;;;;;;;4.82;2.78;;;;;;;6.47;62.58;97911.47;4962227;28;20286;-81
2023/11/22 03:44:53;;;;;;;5.70;3.05;;;;;;;6.56;62.98;97909.47;4957612;28;20203;-80
2023/11/22 03:47:19;;;;;;;5.40;3.30;;;;;;;6.40;63.39;97908.09;4959193;28;20306;-80
2023/11/22 03:49:44;;;;;;;4.63;2.90;;;;;;;6.60;63.29;97918.44;4928241;28;20722;-84
2023/11/22 03:52:14;;;;;;;4.78;2.92;;;;;;;6.52;63.14;97918.63;4938875;28;20196;-81
2023/11/22 03:54:39;;;;;;;4.97;2.95;;;;;;;6.32;63.39;97932.38;4966962;28;20169;-81
2023/11/22 03:57:05;;;;;;;3.97;2.60;;;;;;;6.43;62.75;97922.44;4939974;28;20287;-84
2023/11/22 03:59:30;;;;;;;4.40;2.72;;;;;;;6.52;62.82;97927.19;4957885;28;20207;-83
2023/11/22 04:01:56;;;;;;;5.82;2.58;;;;;;;6.49;63.01;97930.16;4935220;28;20280;-82
2023/11/22 04:04:22;;;;;;;4.28;2.50;;;;;;;6.44;63.42;97932.56;4951847;28;20642;-82
2023/11/22 04:06:48;;;;;;;3.47;2.25;;;;;;;6.43;62.99;97951.69;4970842;28;20210;-81
2023/11/22 04:09:14;;;;;;;5.90;2.67;;;;;;;6.42;63.70;97933.75;4947684;28;20183;-84
2023/11/22 04:11:39;;;;;;;4.32;2.78;;;;;;;6.35;63.22;97949.28;4954429;28;20283;-82
2023/11/22 04:14:05;;;;;;;6.18;3.45;;;;;;;6.34;63.78;97955.44;4953278;28;20648;-82
2023/11/22 04:16:31;;;;;;;5.60;3.03;;;;;;;6.15;64.10;97947.47;4965572;28;20179;-81
2023/11/22 04:18:57;;;;;;;5.38;2.80;;;;;;;6.12;63.66;97950.44;4932090;28;20276;-81
2023/11/22 04:21:22;;;;;;;5.88;3.50;;;;;;;6.13;63.92;97943.47;4937340;28;20279;-81
2023/11/22 04:23:51;;;;;;;5.45;3.90;;;;;;;5.95;64.72;97946.59;4946769;28;20222;-81
2023/11/22 04:26:16;;;;;;;5.75;3.22;;;;;;;5.84;65.13;97970.41;4922084;28;20192;-81
2023/11/22 04:28:42;;;;;;;6.05;3.47;;;;;;;5.83;64.90;97969.63;4934215;28;20214;-81
2023/11/22 04:31:08;;;;;;;7.38;3.35;;;;;;;5.80;64.82;97963.03;4930742;28;20269;-81
2023/11/22 04:33:34;;;;;;;5.32;3.47;;;;;;;5.78;64.86;97970.19;4931559;28;20599;-82
2023/11/22 04:36:00;;;;;;;5.35;3.42;;;;;;;5.69;64.92;97970.53;4970498;28;20459;-83
2023/11/22 04:38:26;;;;;;;7.10;3.55;;;;;;;5.70;65.14;97967.78;4951344;28;20165;-81
2023/11/22 04:40:51;;;;;;;7.15;3.60;;;;;;;5.93;64.44;97961.47;4930290;28;20479;-83
2023/11/22 04:43:16;;;;;;;5.63;3.30;;;;;;;5.90;64.62;97969.66;4951005;28;20277;-82
2023/11/22 04:45:42;;;;;;;6.05;3.03;;;;;;;5.98;63.54;97980.63;4959885;28;20277;-81
2023/11/22 04:48:07;;;;;;;5.40;3.20;;;;;;;5.96;63.85;97971.47;4953077;28;20278;-81
2023/11/22 04:50:33;;;;;;;6.35;3.33;;;;;;;5.93;63.74;97982.16;4930030;28;20221;-82
2023/11/22 04:52:58;;;;;;;5.47;3.35;;;;;;;5.92;63.37;97970.25;4961986;28;20265;-82
2023/11/22 04:55:23;;;;;;;6.65;3.42;;;;;;;5.87;63.85;97977.78;4962705;28;20215;-82
2023/11/22 04:57:49;;;;;;;6.95;3.40;;;;;;;5.86;63.46;97984.75;4928703;28;20195;-82
2023/11/22 05:00:15;;;;;;;5.55;3.42;;;;;;;5.81;63.61;97980.16;4952092;28;20306;-79
2023/11/22 05:02:41;;;;;;;7.15;4.00;;;;;;;5.82;63.96;97981.72;4934494;28;20212;-81
2023/11/22 05:05:10;;;;;;;7.05;3.70;;;;;;;5.82;63.43;97986.09;4964947;28;20170;-80
2023/11/22 05:07:35;;;;;;;5.90;3.58;;;;;;;5.86;63.55;97996.84;4941816;28;20667;-81
2023/11/22 05:10:03;;;;;;;7.43;4.00;;;;;;;5.74;64.16;98004.34;4933204;28;20178;-81
2023/11/22 05:12:29;;;;;;;6.05;3.80;;;;;;;5.60;63.93;97996.56;4961113;28;20236;-81
2023/11/22 05:14:54;;;;;;;6.50;3.67;;;;;;;5.81;63.55;98005.22;4943178;28;20165;-80
2023/11/22 05:17:20;;;;;;;6.78;3.25;;;;;;;5.70;63.97;98003.94;4945645;28;20237;-81
2023/11/22 05:19:45;;;;;;;6.30;4.13;;;;;;;5.76;63.40;97995.44;4945114;28;20196;-80
2023/11/22 05:22:10;;;;;;;6.38;3.70;;;;;;;5.62;63.47;97997.16;4967420;28;20211;-80
2023/11/22 05:24:38;;;;;;;7.05;3.75;;;;;;;5.84;63.51;98004.00;4943210;28;20196;-80
2023/11/22 05:27:04;;;;;;;7.20;3.80;;;;;;;5.89;62.69;98001.66;4943177;28;20248;-81
2023/11/22 05:29:29;;;;;;;8.65;3.92;;;;;;;5.84;62.24;98011.75;4945684;28;20698;-81
2023/11/22 05:31:55;;;;;;;6.38;3.45;;;;;;;5.85;62.81;98015.94;4950872;28;20279;-81
2023/11/22 05:34:21;;;;;;;4.82;2.80;;;;;;;5.81;62.94;98016.34;4965874;28;20199;-80
2023/11/22 05:36:46;;;;;;;7.18;3.42;;;;;;;5.42;63.22;98011.78;4968002;28;20289;-81
2023/11/22 05:39:12;;;;;;;5.35;3.33;;;;;;;5.71;62.93;98015.88;4945269;28;20281;-81
2023/11/22 05:41:38;;;;;;;5.07;3.10;;;;;;;5.77;62.49;98029.81;4947212;28;20290;-80
2023/11/22 05:44:03;;;;;;;5.85;3.40;;;;;;;5.60;62.21;98042.25;4936093;28;20155;-80
2023/11/22 05:46:29;;;;;;;5.32;3.17;;;;;;;5.51;62.36;98049.38;4975858;28;20235;-81
2023/11/22 05:48:54;;;;;;;4.95;2.90;;;;;;;5.47;62.79;98039.59;4962258;28;20165;-79
2023/11/22 05:51:22;;;;;;;6.53;3.05;;;;;;;5.47;62.52;98037.81;4942957;28;20185;-79
2023/11/22 05:53:48;;;;;;;6.20;3.88;;;;;;;5.27;63.59;98024.00;4983700;28;20179;-79
2023/11/22 05:56:14;;;;;;;5.40;2.70;;;;;;;5.36;62.66;98033.19;4947696;28;20564;-81
2023/11/22 05:58:40;;;;;;;5.22;2.80;;;;;;;5.30;63.79;98034.75;4965722;28;20183;-80
2023/11/22 06:01:06;;;;;;;5.32;3.20;;;;;;;5.43;62.66;98044.34;4932548;28;20301;-81
2023/11/22 06:03:31;;;;;;;6.95;3.15;;;;;;;5.42;62.33;98038.38;4944717;28;20165;-80
2023/11/22 06:05:57;;;;;;;5.63;3.40;;;;;;;5.43;62.18;98046.91;4958311;28;20620;-80
2023/11/22 06:08:23;;;;;;;6.45;3.25;;;;;;;5.43;62.76;98054.66;4964378;28;20297;-80
2023/11/22 06:10:48;;;;;;;6.55;3.85;;;;;;;5.31;62.42;98036.31;4946006;28;20271;-81
2023/11/22 06:13:14;;;;;;;6.53;3.40;;;;;;;5.33;62.21;98056.78;4966188;28;20207;-80
2023/11/22 06:15:40;;;;;;;7.13;4.05;;;;;;;5.41;62.73;98062.59;4950081;28;20620;-80
2023/11/22 06:18:05;;;;;;;6.00;3.90;;;;;;;5.46;62.68;98066.41;4930001;28;20263;-80
2023/11/22 06:20:30;;;;;;;8.10;4.15;;;;;;;5.29;62.20;98066.69;4947695;28;20172;-80
2023/11/22 06:22:56;;;;;;;6.57;4.30;;;;;;;5.20;62.83;98063.47;4946451;28;20302;-79
2023/11/22 06:25:22;;;;;;;7.60;4.57;;;;;;;5.26;62.72;98067.09;4932681;28;20172;-81
2023/11/22 06:27:50;;;;;;;7.63;4.45;;;;;;;5.03;62.94;98065.50;4942991;28;20240;-80
2023/11/22 06:30:15;;;;;;;7.60;5.10;;;;;;;5.22;63.10;98068.44;4956916;28;20212;-81
2023/11/22 06:32:42;;;;;;;9.57;5.43;;;;;;;5.20;63.15;98080.75;4946152;28;20111;-80
2023/11/22 06:35:09;;;;;;;8.57;5.50;;;;;;;5.35;62.51;98078.88;4975549;28;20289;-81
2023/11/22 06:37:34;;;;;;;9.23;4.72;;;;;;;5.28;62.28;98084.97;4962654;28;20291;-79
2023/11/22 06:40:00;;;;;;;90.20;39.28;;;;;;;5.28;62.57;98088.34;4944045;28;20399;-81
2023/11/22 06:42:26;;;;;;;20.63;13.05;;;;;;;5.20;62.82;98080.75;4947103;28;20695;-81
2023/11/22 06:44:52;;;;;;;8.55;4.93;;;;;;;5.27;61.98;98085.97;4964915;28;20214;-80
2023/11/22 06:47:19;;;;;;;7.05;4.28;;;;;;;5.26;62.60;98080.00;4944521;28;20254;-81
2023/11/22 06:49:44;;;;;;;10.93;5.32;;;;;;;5.19;62.43;98097.19;4960681;28;20290;-81
2023/11/22 06:52:09;;;;;;;8.40;5.93;;;;;;;5.35;61.61;98109.06;4928461;28;20675;-81
2023/11/22 06:54:36;;;;;;;9.52;5.25;;;;;;;5.06;61.82;98105.66;4944375;28;20227;-81
2023/11/22 06:57:02;;;;;;;9.88;5.63;;;;;;;5.12;62.87;98110.06;4944095;28;20270;-81
2023/11/22 06:59:28;;;;;;;12.25;8.10;;;;;;;5.16;62.17;98113.09;4946285;28;20667;-81
2023/11/22 07:01:55;;;;;;;10.02;5.93;;;;;;;5.04;62.57;98108.41;4949697;28;20278;-80
2023/11/22 07:04:21;;;;;;;12.38;8.85;;;;;;;5.08;62.59;98119.16;4956284;28;20270;-81
2023/11/22 07:06:46;;;;;;;13.38;9.43;;;;;;;5.12;62.04;98109.25;4948763;28;20164;-81
2023/11/22 07:09:13;;;;;;;11.82;7.10;;;;;;;5.14;62.57;98117.63;4952050;28;20190;-81
2023/11/22 07:11:39;;;;;;;8.82;6.68;;;;;;;5.04;62.64;98098.09;4966478;28;20180;-81
2023/11/22 07:14:04;;;;;;;7.72;5.63;;;;;;;5.10;62.76;98100.91;4983149;28;20202;-80
2023/11/22 07:16:31;;;;;;;7.40;4.43;;;;;;;5.07;62.32;98108.06;4978734;28;20212;-81
2023/11/22 07:18:56;;;;;;;6.32;3.50;;;;;;;5.08;62.71;98101.09;4930769;28;20293;-81
2023/11/22 07:21:22;;;;;;;5.75;3.58;;;;;;;5.17;62.18;98117.25;4946914;28;20159;-82
2023/11/22 07:23:47;;;;;;;7.70;4.03;;;;;;;5.20;62.64;98122.06;5116870;23;20275;-82
2023/11/22 07:26:14;;;;;;;7.88;4.35;;;;;;;5.12;62.49;98115.22;4983957;28;20159;-82
2023/11/22 07:31:14;;;;;;;;;;;;;;;5.36;61.87;98126.94;5011173;22;20153;-82
2023/11/22 07:33:42;;;;;;;9.55;4.70;;;;;;;5.15;62.70;98130.34;4950178;28;20078;-82
2023/11/22 07:36:07;;;;;;;7.32;3.80;;;;;;;5.09;62.71;98122.53;4949134;28;20717;-82
2023/11/22 07:38:33;;;;;;;5.53;3.25;;;;;;;5.06;62.72;98121.94;4950644;28;20272;-81
2023/11/22 07:40:59;;;;;;;5.60;3.33;;;;;;;5.07;61.81;98131.28;4948184;28;20199;-82
2023/11/22 07:43:24;;;;;;;5.30;3.40;;;;;;;5.08;63.23;98134.66;4966217;28;20272;-82
2023/11/22 07:45:50;;;;;;;8.52;4.65;;;;;;;5.14;62.41;98122.78;4975346;28;20583;-82
2023/11/22 07:48:16;;;;;;;7.20;4.20;;;;;;;5.14;63.13;98127.94;4950468;28;20249;-84
2023/11/22 07:50:43;;;;;;;7.22;4.53;;;;;;;5.14;62.39;98127.94;4939024;28;20285;-81
2023/11/22 07:53:11;;;;;;;7.18;3.72;;;;;;;5.11;62.73;98130.91;4961374;28;20279;-82
2023/11/22 07:55:37;;;;;;;7.28;4.20;;;;;;;5.22;63.49;98135.56;4950311;28;20168;-82
2023/11/22 07:58:03;;;;;;;17.05;7.30;;;;;;;5.21;63.39;98119.28;4946469;28;20678;-81
2023/11/22 08:00:29;;;;;;;10.20;4.85;;;;;;;5.27;62.32;98127.28;4947833;28;20273;-82
2023/11/22 08:02:55;;;;;;;10.48;4.90;;;;;;;5.24;61.98;98123.25;4959940;28;20297;-82
2023/11/22 08:05:23;;;;;;;6.93;3.83;;;;;;;5.33;62.22;98127.31;4949960;28;20235;-82
2023/11/22 08:07:48;;;;;;;6.95;4.38;;;;;;;5.21;62.58;98128.81;4933089;28;20373;-82
2023/11/22 08:10:20;;;;;;;7.28;3.80;;;;;;;5.15;63.20;98125.19;4912378;28;20393;-81
2023/11/22 08:12:47;;;;;;;8.70;4.22;;;;;;;5.23;63.95;98126.84;4912221;28;20124;-81
2023/11/22 08:15:14;;;;;;;8.00;4.10;;;;;;;5.17;62.54;98143.06;4937849;28;20207;-80
2023/11/22 08:17:40;;;;;;;8.23;4.53;;;;;;;4.92;63.75;98142.63;4944408;28;20200;-80
2023/11/22 08:20:06;;;;;;;8.13;4.18;;;;;;;5.07;63.83;98140.78;4941856;28;20780;-81
2023/11/22 08:22:35;;;;;;;9.65;4.28;;;;;;;5.22;63.39;98143.31;4908513;28;20192;-81
2023/11/22 08:25:03;;;;;;;7.43;3.67;;;;;;;5.26;62.45;98152.31;4942364;28;20219;-79
2023/11/22 08:27:28;;;;;;;6.82;3.58;;;;;;;5.21;62.56;98146.91;4926481;28;20237;-80
2023/11/22 08:29:54;;;;;;;7.72;3.70;;;;;;;4.93;62.95;98137.28;4941638;28;20200;-79
2023/11/22 08:32:23;;;;;;;4.90;3.17;;;;;;;5.13;62.47;98154.75;4908839;28;20405;-80
2023/11/22 08:34:51;;;;;;;6.53;2.92;;;;;;;4.85;62.69;98151.13;4918602;28;20283;-80
2023/11/22 08:37:17;;;;;;;6.65;3.60;;;;;;;4.79;61.65;98161.38;4918018;28;20572;-80
2023/11/22 08:39:43;;;;;;;5.18;2.95;;;;;;;4.81;60.97;98170.50;4908342;28;20165;-81
2023/11/22 08:42:09;;;;;;;4.68;2.85;;;;;;;5.08;60.95;98181.13;4941446;28;20643;-80
2023/11/22 08:44:38;;;;;;;5.45;3.40;;;;;;;5.24;61.05;98182.66;4911965;28;20596;-80
2023/11/22 08:47:03;;;;;;;6.68;3.67;;;;;;;5.22;60.08;98185.41;4914181;28;20200;-81
2023/11/22 08:49:29;;;;;;;6.40;2.92;;;;;;;5.17;60.34;98181.78;4947564;28;20191;-81
2023/11/22 08:51:56;;;;;;;5.03;2.97;;;;;;;5.28;60.79;98176.16;4914787;28;20362;-81
2023/11/22 08:54:21;;;;;;;6.43;3.40;;;;;;;5.16;60.95;98178.41;4949784;28;20731;-80
2023/11/22 08:56:47;;;;;;;6.40;3.30;;;;;;;4.65;60.37;98186.22;4945058;28;20298;-78
2023/11/22 08:59:12;;;;;;;5.63;3.00;;;;;;;4.93;61.18;98188.91;4941289;28;20516;-80
2023/11/22 09:01:38;;;;;;;6.97;3.10;;;;;;;5.20;59.95;98191.75;4931156;28;20164;-83
2023/11/22 09:04:03;;;;;;;7.43;3.92;;;;;;;5.54;60.66;98192.84;4914558;28;20176;-82
2023/11/22 09:06:30;;;;;;;6.50;3.80;;;;;;;5.12;59.17;98194.44;4897203;28;20156;-80
2023/11/22 09:08:56;;;;;;;5.82;3.25;;;;;;;5.61;60.14;98201.44;4912989;28;20149;-82
2023/11/22 09:11:22;;;;;;;5.88;3.25;;;;;;;5.40;58.68;98197.91;4933510;28;20290;-81
2023/11/22 09:13:50;;;;;;;5.05;3.67;;;;;;;5.22;59.24;98195.75;4929907;28;20308;-81
2023/11/22 09:16:16;;;;;;;7.93;3.40;;;;;;;5.47;59.99;98189.38;4913172;28;20204;-81
2023/11/22 09:18:42;;;;;;;5.60;3.38;;;;;;;5.40;58.99;98192.75;4940148;28;20674;-80
2023/11/22 09:21:09;;;;;;;5.57;3.47;;;;;;;5.59;58.78;98190.50;4928928;28;20292;-81
2023/11/22 09:23:35;;;;;;;6.28;2.75;;;;;;;5.58;58.88;98181.16;4924497;28;20259;-82
2023/11/22 09:26:02;;;;;;;6.53;3.80;;;;;;;5.55;59.51;98181.53;4945946;28;20188;-80
2023/11/22 09:28:28;;;;;;;6.10;3.45;;;;;;;5.20;58.91;98177.06;4907389;28;20288;-81
2023/11/22 09:31:01;;;;;;;4.72;2.90;;;;;;;5.56;58.39;98172.78;4947118;28;20630;-84
2023/11/22 09:33:26;;;;;;;4.68;3.45;;;;;;;5.52;58.35;98172.38;4914992;28;20274;-80
2023/11/22 09:35:52;;;;;;;5.82;3.30;;;;;;;5.56;58.08;98158.09;4950493;28;20258;-80
2023/11/22 09:38:17;;;;;;;5.95;3.22;;;;;;;5.10;58.84;98176.56;4930936;28;20810;-80
2023/11/22 09:40:47;;;;;;;4.97;3.15;;;;;;;5.36;59.38;98178.56;4944113;28;20289;-80
2023/11/22 09:43:24;;;;;;;5.30;3.42;;;;;;;5.32;57.47;98181.75;4916235;28;20592;-80
2023/11/22 09:45:51;;;;;;;4.55;2.72;;;;;;;5.31;56.82;98186.09;4939511;28;20248;-81
2023/11/22 09:48:22;;;;;;;6.22;3.08;;;;;;;5.59;57.30;98187.94;4930774;28;20765;-81
2023/11/22 09:51:14;;;;;;;4.55;2.72;;;;;;;5.56;56.39;98190.88;4942032;28;20185;-80
2023/11/22 09:53:42;;;;;;;6.55;2.90;;;;;;;5.30;57.01;98176.75;4941746;28;20524;-79
2023/11/22 09:56:09;;;;;;;5.30;2.95;;;;;;;5.12;57.84;98176.38;4947198;28;20632;-80
2023/11/22 09:58:39;;;;;;;4.30;3.05;;;;;;;4.91;56.92;98185.72;4940583;28;20290;-80
2023/11/22 10:01:33;;;;;;;3.53;2.22;;;;;;;5.23;55.93;98196.56;4921257;28;20215;-81
2023/11/22 10:03:59;;;;;;;3.33;2.28;;;;;;;5.26;56.85;98201.38;4947918;28;20193;-80
2023/11/22 10:06:24;;;;;;;4.60;3.00;;;;;;;5.06;57.08;98214.06;4922351;28;20289;-79
2023/11/22 10:08:51;;;;;;;3.70;2.22;;;;;;;4.92;56.85;98228.59;4922012;28;20217;-79
2023/11/22 10:11:22;;;;;;;4.28;2.25;;;;;;;4.77;56.40;98228.63;4938879;28;20645;-79
2023/11/22 10:13:51;;;;;;;3.63;2.25;;;;;;;4.88;57.04;98230.75;4935758;28;20229;-79
2023/11/22 10:16:18;;;;;;;4.40;2.30;;;;;;;4.89;56.35;98244.44;4927286;28;20292;-80
2023/11/22 10:18:46;;;;;;;4.50;2.47;;;;;;;4.93;55.90;98247.47;4945841;28;20266;-80
2023/11/22 10:21:32;;;;;;;4.82;2.65;;;;;;;4.90;55.65;98258.16;4920618;28;20294;-80
2023/11/22 10:24:03;;;;;;;5.28;2.40;;;;;;;4.99;56.16;98244.97;4922783;28;20282;-80
2023/11/22 10:26:28;;;;;;;9.25;3.80;;;;;;;5.35;55.67;98243.34;4905717;28;20281;-79
2023/11/22 10:28:55;;;;;;;6.88;3.80;;;;;;;5.12;55.12;98243.50;4900162;28;20714;-80
2023/11/22 10:31:24;;;;;;;11.63;8.65;;;;;;;5.47;54.92;98239.28;4944643;28;20297;-81
2023/11/22 10:33:50;;;;;;;4.22;3.00;;;;;;;5.33;54.62;98243.53;4906516;28;20204;-78
2023/11/22 10:36:16;;;;;;;4.60;3.33;;;;;;;5.34;54.25;98247.69;4935393;28;20461;-80
2023/11/22 10:38:46;;;;;;;6.55;2.55;;;;;;;5.15;54.20;98253.47;4925247;28;20323;-79
2023/11/22 10:41:13;;;;;;;4.57;2.80;;;;;;;5.35;54.50;98254.47;4939014;28;20255;-80
2023/11/22 10:43:39;;;;;;;4.35;3.20;;;;;;;5.15;54.33;98253.47;4934793;28;20651;-79
2023/11/22 10:46:06;;;;;;;4.32;2.53;;;;;;;5.60;54.08;98251.50;4937912;28;20212;-81
2023/11/22 10:48:35;;;;;;;4.63;2.60;;;;;;;5.22;54.46;98244.00;4924853;28;20629;-80
2023/11/22 10:51:05;;;;;;;5.53;2.70;;;;;;;5.48;54.81;98260.75;4901965;28;20203;-79
2023/11/22 10:53:32;;;;;;;4.47;2.38;;;;;;;5.57;54.07;98259.63;4929745;28;20204;-81
2023/11/22 10:56:04;;;;;;;4.65;2.67;;;;;;;5.57;53.82;98257.03;4917445;28;20203;-81
2023/11/22 10:58:32;;;;;;;4.43;2.65;;;;;;;5.93;53.65;98238.88;4910080;28;20208;-83
2023/11/22 11:00:58;;;;;;;5.05;2.45;;;;;;;5.99;52.80;98252.84;4942903;28;20710;-82
2023/11/22 11:03:27;;;;;;;4.70;2.72;;;;;;;5.77;53.81;98258.00;4928097;28;20199;-80
2023/11/22 11:06:00;;;;;;;4.00;2.40;;;;;;;5.72;52.86;98269.91;4899536;28;20282;-82
2023/11/22 11:08:27;;;;;;;5.10;3.20;;;;;;;5.54;52.88;98272.94;4943159;28;20281;-82
2023/11/22 11:10:54;;;;;;;9.75;5.72;;;;;;;5.61;52.97;98278.97;4945803;28;20346;-82
2023/11/22 11:13:19;;;;;;;7.60;4.22;;;;;;;5.81;52.52;98279.94;4929626;28;20285;-83
2023/11/22 11:15:47;;;;;;;6.53;4.40;;;;;;;6.02;51.44;98280.13;4937008;28;20659;-82
2023/11/22 11:18:15;;;;;;;4.93;3.17;;;;;;;6.07;50.91;98294.09;4924060;28;20188;-82
2023/11/22 11:20:55;;;;;;;4.32;2.85;;;;;;;6.13;52.11;98282.97;4920573;28;20238;-84
2023/11/22 11:23:28;;;;;;;5.25;2.70;;;;;;;6.34;51.23;98281.31;4916128;28;20248;-82
2023/11/22 11:25:55;;;;;;;7.38;3.72;;;;;;;6.62;52.22;98277.94;4945634;28;20715;-81
2023/11/22 11:28:22;;;;;;;5.15;2.65;;;;;;;6.48;52.32;98275.25;4918032;28;20375;-80
2023/11/22 11:30:48;;;;;;;3.90;2.70;;;;;;;6.30;52.47;98277.53;4916957;28;20216;-81
2023/11/22 11:33:19;;;;;;;4.20;2.33;;;;;;;6.37;52.08;98279.19;4909434;28;20573;-82
2023/11/22 11:35:48;;;;;;;4.93;2.47;;;;;;;6.55;52.18;98275.31;4925712;28;20482;-80
2023/11/22 11:38:16;;;;;;;6.07;2.92;;;;;;;6.44;52.37;98279.19;4912055;28;20654;-83
2023/11/22 11:40:43;;;;;;;4.78;3.28;;;;;;;6.64;50.77;98274.16;4912544;28;20644;-83